首页
METAR-TAF:

METAR-TAF

机场 :

巴尔的摩/华盛顿瑟古德·马歇尔国际机场

巴爾的摩, 马里兰州, 美国

纬度: 39-10-00N, 经度: 076-41-00W, 海拔: 44米

当前天气观测

该预报发布于14分钟前的07:18 UTC
风速10节,风向西北
温度 20°C
湿度 94%
气压 1008 hPa
能見度: 9.7公里
散云层高于1000英尺
多云层高于4000英尺, 积雨云.
多云层高于10000英尺
小雨, 轻雾

METAR: KBWI 230718Z 31010KT 6SM -RA BR SCT010 BKN040CB BKN100 20/19 A2977 RMK AO2 CB NE MOV NE P0003 T02000194

时间: 03:32 (07:32 UTC)

预报

该预报发布于49分钟前的06:43 UTC
预报有效从23日的 07点(UTC)到 24日的 12点(UTC)
风速30节,风向多变
能見度: 3.2公里
多云层高于1500英尺
阴天层高于5000英尺
阵雨
从 23日的 0715点(UTC)
风速8节,风向西北,有时为16节阵风
能見度: 9.7公里
多云层高于1500英尺
阴天层高于5000英尺
小阵雨
从 23日的 1000点(UTC)
风速7节,风向西北
能見度: 10公里
散云层高于2500英尺
阴天层高于5000英尺
小阵雨
从 23日的 1700点(UTC)
风速4节,风向西转西北
能見度: 10公里
散云层高于3000英尺
多云层高于5000英尺
多云层高于13000英尺
从 23日的 2200点(UTC)
风速4节,风向西转西北
能見度: 10公里
散云层高于5000英尺
多云层高于13000英尺
从 24日的 0000点(UTC)
风速6节,风向
能見度: 10公里
散云层高于7000英尺

TAF: KBWI 230643Z 2307/2412 VRB30KT 2SM SHRA BKN015 OVC050 FM230715 31008G16KT 6SM -SHRA BKN015 OVC050 FM231000 32007KT P6SM -SHRA SCT025 OVC050 FM231700 29004KT P6SM SCT030 BKN050 BKN130 FM232200 29004KT P6SM SCT050 BKN130 FM240000 35006KT P6SM SCT070

超过4000个机场的气象观测和天气预报(METAR&TAF报告)。

可查询的气象台以黄色和红色小点在地图上表示。

将鼠标移到小点上方,可查看气象台名称。

然后点击查看天气观测和预报。

如需切换地图:点击带黑十字的绿色按钮放大地图;点击带横线的绿色按钮缩小地图;或者点击绿色箭头查看邻近地区的地图。


METAR-TAF: